Time;durP1;ratioP1;P1;durP2;ratioP2;P2;SDS_P1;SDS_P2;PMS_P1;PMS_P2;Temp;Humidity;BMP_temperature;BMP_pressure;BME280_temperature;BME280_humidity;BME280_pressure;Samples;Min_cycle;Max_cycle;Signal;HPM_P1;HPM_P2
2022/06/19 00:01:28;;;;;;;12.70;10.37;;;;;;;14.45;94.33;100137.88;5053776;28;20128;-64
2022/06/19 00:03:55;;;;;;;12.33;10.73;;;;;;;14.48;94.13;100137.50;5054309;28;20123;-65
2022/06/19 00:06:21;;;;;;;14.07;11.30;;;;;;;14.43;94.01;100113.16;5053659;28;20043;-65
2022/06/19 00:08:48;;;;;;;13.07;11.73;;;;;;;14.43;94.04;100118.50;5053927;28;20033;-64
2022/06/19 00:11:18;;;;;;;18.83;12.37;;;;;;;14.50;93.58;100127.41;5053505;28;20114;-65
2022/06/19 00:13:44;;;;;;;13.20;11.80;;;;;;;14.55;93.71;100126.81;5053442;28;20404;-64
2022/06/19 00:16:10;;;;;;;14.17;12.67;;;;;;;14.41;93.86;100104.47;5053515;28;20043;-66
2022/06/19 00:18:38;;;;;;;12.67;11.13;;;;;;;14.56;93.62;100117.72;5053552;28;20408;-65
2022/06/19 00:21:05;;;;;;;13.82;11.77;;;;;;;14.53;93.67;100116.28;5053544;28;20045;-65
2022/06/19 00:23:30;;;;;;;13.83;11.57;;;;;;;14.57;93.51;100117.53;5053469;28;20062;-65
2022/06/19 00:25:56;;;;;;;12.23;10.90;;;;;;;14.53;93.31;100110.94;5053636;28;20040;-64
2022/06/19 00:28:21;;;;;;;13.53;11.47;;;;;;;14.56;93.26;100112.38;5053224;28;20053;-66
2022/06/19 00:30:47;;;;;;;13.73;10.93;;;;;;;14.57;93.46;100111.34;5053147;28;20064;-69
2022/06/19 00:33:12;;;;;;;12.57;11.10;;;;;;;14.57;93.33;100106.81;5053415;28;20036;-65
2022/06/19 00:35:38;;;;;;;19.23;10.87;;;;;;;14.56;93.38;100101.66;5053367;28;20637;-65
2022/06/19 00:38:03;;;;;;;12.97;11.67;;;;;;;14.59;93.54;100103.09;5053490;28;20115;-67
2022/06/19 00:40:30;;;;;;;12.37;11.17;;;;;;;14.56;93.42;100099.81;5053906;28;20040;-63
2022/06/19 00:42:55;;;;;;;13.83;12.43;;;;;;;14.50;93.69;100081.88;5059217;28;20404;-63
2022/06/19 00:45:36;;;;;;;11.80;10.60;;;;;;;14.60;93.44;100099.38;5058468;28;20041;-65
2022/06/19 00:48:10;;;;;;;13.80;11.10;;;;;;;14.54;93.54;100091.13;5057196;28;20037;-64
2022/06/19 00:51:04;;;;;;;12.93;11.57;;;;;;;14.58;93.49;100099.59;5053108;28;20060;-66
2022/06/19 00:53:36;;;;;;;13.90;11.67;;;;;;;14.50;93.70;100078.38;5052647;28;20570;-64
2022/06/19 00:56:02;;;;;;;12.40;11.27;;;;;;;14.55;93.69;100090.13;5052486;28;20420;-66
2022/06/19 00:58:34;;;;;;;12.23;10.97;;;;;;;14.50;94.06;100075.69;5052957;28;20512;-65
2022/06/19 01:01:06;;;;;;;13.80;12.50;;;;;;;14.51;94.31;100083.50;5052655;28;20131;-65
2022/06/19 01:03:55;;;;;;;13.90;12.43;;;;;;;14.52;94.54;100078.97;5054737;28;20028;-64
2022/06/19 01:06:22;;;;;;;14.77;12.03;;;;;;;14.47;94.65;100071.56;5057900;28;20548;-65
2022/06/19 01:08:48;;;;;;;14.27;12.60;;;;;;;14.45;94.71;100073.59;5057549;28;20032;-65
2022/06/19 01:11:16;;;;;;;13.57;12.17;;;;;;;14.49;94.65;100074.03;5056029;28;20043;-64
2022/06/19 01:13:42;;;;;;;12.90;11.68;;;;;;;14.41;94.71;100061.59;5053034;28;20127;-64
2022/06/19 01:16:08;;;;;;;15.93;13.30;;;;;;;14.39;95.11;100063.66;5051258;28;20072;-64
2022/06/19 01:18:36;;;;;;;12.03;10.90;;;;;;;14.43;95.15;100067.63;5052358;28;20492;-65
2022/06/19 01:21:17;;;;;;;14.75;12.43;;;;;;;14.50;94.59;100065.78;5052344;28;20540;-66
2022/06/19 01:23:55;;;;;;;15.73;12.10;;;;;;;14.45;94.34;100057.53;5052276;28;20033;-65
2022/06/19 01:26:22;;;;;;;16.63;11.57;;;;;;;14.40;94.28;100053.78;5052239;28;20098;-64
2022/06/19 01:28:56;;;;;;;13.03;11.80;;;;;;;14.47;94.31;100063.53;5052237;28;20037;-65
2022/06/19 01:31:28;;;;;;;13.10;11.03;;;;;;;14.40;94.58;100057.28;5052501;28;20041;-64
2022/06/19 01:33:59;;;;;;;12.83;11.43;;;;;;;14.47;94.68;100050.13;5052323;28;20042;-65
2022/06/19 01:36:26;;;;;;;14.77;12.30;;;;;;;14.45;94.48;100048.66;5052254;28;20029;-65
2022/06/19 01:38:54;;;;;;;13.87;12.53;;;;;;;14.48;94.51;100035.69;5051941;28;20037;-66
2022/06/19 01:41:25;;;;;;;13.90;12.47;;;;;;;14.42;94.16;100016.88;5051968;28;20044;-64
2022/06/19 01:43:51;;;;;;;12.73;11.47;;;;;;;14.46;94.18;100024.38;5050662;28;20044;-63
2022/06/19 01:46:18;;;;;;;12.33;11.13;;;;;;;14.50;94.17;100033.63;5052129;28;20040;-66
2022/06/19 01:48:44;;;;;;;15.23;12.70;;;;;;;14.49;94.07;100023.94;5052001;28;20040;-66
2022/06/19 01:51:13;;;;;;;12.77;11.47;;;;;;;14.51;93.83;100029.09;5051886;28;20122;-66
2022/06/19 01:53:50;;;;;;;13.33;11.63;;;;;;;14.51;94.05;100026.44;5051765;28;20085;-67
2022/06/19 01:56:20;;;;;;;12.10;10.90;;;;;;;14.50;93.99;100017.56;5051588;28;20531;-65
2022/06/19 01:58:52;;;;;;;14.07;12.57;;;;;;;14.49;93.53;100010.56;5051584;28;20056;-64
2022/06/19 02:01:17;;;;;;;12.00;10.17;;;;;;;14.61;93.73;100023.31;5052002;28;20041;-65
2022/06/19 02:03:47;;;;;;;12.73;11.43;;;;;;;14.51;93.49;100003.13;5052189;28;20041;-66
2022/06/19 02:06:15;;;;;;;13.93;10.97;;;;;;;14.55;93.30;100004.38;5052025;28;20047;-65
2022/06/19 02:08:41;;;;;;;;;;;;;;;14.66;92.83;100024.34;5052084;28;20060;-65
2022/06/19 02:11:09;;;;;;;14.33;12.77;;;;;;;14.38;92.90;99970.94;5051749;28;19951;-66
2022/06/19 02:13:35;;;;;;;11.85;10.77;;;;;;;14.60;92.74;99986.84;5051835;28;20033;-67
2022/06/19 02:16:12;;;;;;;12.80;11.50;;;;;;;14.63;92.27;99987.25;5051721;28;20035;-65
2022/06/19 02:18:40;;;;;;;13.60;12.40;;;;;;;14.65;92.74;99998.59;5051828;28;20033;-66
2022/06/19 02:21:08;;;;;;;13.20;11.85;;;;;;;14.69;92.77;99996.31;5051692;28;20076;-64
2022/06/19 02:23:38;;;;;;;12.90;11.50;;;;;;;14.78;92.58;100003.13;5051615;28;20037;-66
2022/06/19 02:26:05;;;;;;;12.63;11.33;;;;;;;14.80;92.12;100003.72;5051568;28;20040;-64
2022/06/19 02:28:32;;;;;;;14.52;11.13;;;;;;;14.79;91.90;99988.69;5051737;28;20102;-67
2022/06/19 02:30:58;;;;;;;14.17;11.37;;;;;;;14.84;91.83;99992.38;5051645;28;20499;-64
2022/06/19 02:33:28;;;;;;;13.70;11.63;;;;;;;14.84;91.38;99991.56;5050235;28;20037;-66
2022/06/19 02:35:53;;;;;;;12.63;10.57;;;;;;;14.63;91.58;99947.06;5051508;28;20125;-65
2022/06/19 02:38:21;;;;;;;12.97;10.10;;;;;;;14.88;91.00;99984.75;5051795;28;20501;-67
2022/06/19 02:41:02;;;;;;;13.07;11.50;;;;;;;14.90;91.74;99996.06;5051839;28;20033;-64
2022/06/19 02:43:30;;;;;;;12.87;11.47;;;;;;;14.85;90.82;99985.16;5051568;28;20481;-65
2022/06/19 02:45:57;;;;;;;11.85;10.70;;;;;;;14.94;91.10;99985.75;5051314;28;20507;-65
2022/06/19 02:48:29;;;;;;;10.70;9.70;;;;;;;14.99;90.97;99985.94;5051504;28;20132;-65
2022/06/19 02:50:56;;;;;;;13.10;9.43;;;;;;;14.91;90.76;99965.56;5050415;28;20112;-64
2022/06/19 02:53:22;;;;;;;10.30;9.27;;;;;;;14.91;90.38;99965.56;5051450;28;20041;-65
2022/06/19 02:55:50;;;;;;;10.37;8.77;;;;;;;14.96;90.61;99976.47;5051177;28;20061;-67
2022/06/19 02:58:19;;;;;;;11.57;9.02;;;;;;;14.96;90.79;99962.22;5051357;28;20050;-65
2022/06/19 03:00:46;;;;;;;10.57;9.17;;;;;;;14.99;90.71;99964.50;5051305;28;20041;-66
2022/06/19 03:03:36;;;;;;;9.77;8.77;;;;;;;15.03;90.53;99969.22;5051805;28;20130;-65
2022/06/19 03:06:03;;;;;;;9.97;8.93;;;;;;;14.96;90.25;99960.38;5051758;28;20045;-65
2022/06/19 03:08:28;;;;;;;10.60;9.33;;;;;;;14.97;90.30;99956.66;5051560;28;20038;-65
2022/06/19 03:10:54;;;;;;;8.90;7.87;;;;;;;15.03;90.07;99960.34;5054031;28;20033;-65
2022/06/19 03:13:21;;;;;;;8.50;7.63;;;;;;;14.96;89.85;99941.59;5055473;28;20039;-66
2022/06/19 03:15:47;;;;;;;8.70;7.70;;;;;;;14.97;89.78;99937.06;5054697;28;20040;-65
2022/06/19 03:18:13;;;;;;;8.80;7.63;;;;;;;14.96;89.56;99943.47;5054793;28;20079;-64
2022/06/19 03:20:38;;;;;;;8.47;7.73;;;;;;;14.95;89.68;99933.78;5055024;28;20029;-66
2022/06/19 03:23:04;;;;;;;11.80;8.37;;;;;;;14.97;90.00;99932.53;5057619;28;20033;-64
2022/06/19 03:25:29;;;;;;;10.17;7.80;;;;;;;15.06;89.73;99936.66;5058763;28;20037;-65
2022/06/19 03:27:55;;;;;;;13.13;9.07;;;;;;;15.13;89.59;99933.94;5058065;28;20044;-65
2022/06/19 03:30:21;;;;;;;8.47;7.47;;;;;;;15.28;88.95;99947.88;5054713;28;20047;-64
2022/06/19 03:32:47;;;;;;;8.33;7.50;;;;;;;15.30;89.02;99931.56;5054852;28;20460;-64
2022/06/19 03:35:14;;;;;;;8.53;7.63;;;;;;;15.18;88.91;99899.25;5055005;28;20041;-64
2022/06/19 03:37:40;;;;;;;9.07;8.10;;;;;;;15.44;88.27;99928.63;5054719;28;20043;-65
2022/06/19 03:40:07;;;;;;;8.10;7.30;;;;;;;15.45;87.79;99929.44;5054431;28;20119;-65
2022/06/19 03:42:32;;;;;;;8.67;7.57;;;;;;;15.38;87.89;99923.31;5055576;28;20125;-65
2022/06/19 03:44:58;;;;;;;10.00;7.30;;;;;;;15.34;87.89;99916.72;5054787;28;20531;-63
2022/06/19 03:47:25;;;;;;;10.00;7.87;;;;;;;15.15;88.30;99887.09;5054908;28;20083;-65
2022/06/19 03:49:52;;;;;;;10.37;7.80;;;;;;;15.11;88.21;99880.50;5054357;28;20117;-66
2022/06/19 03:52:17;;;;;;;8.37;7.57;;;;;;;15.37;88.13;99916.28;5054290;28;20036;-66
2022/06/19 03:54:43;;;;;;;8.13;7.03;;;;;;;15.38;88.49;99923.31;5053997;28;20090;-65
2022/06/19 03:57:14;;;;;;;9.07;8.17;;;;;;;15.42;88.30;99913.78;5053983;28;20061;-64
2022/06/19 03:59:39;;;;;;;11.83;8.40;;;;;;;15.41;88.31;99915.66;5052892;28;20048;-65
2022/06/19 04:02:07;;;;;;;8.83;7.50;;;;;;;15.30;88.43;99894.84;5036289;28;20033;-66
2022/06/19 04:04:33;;;;;;;11.10;7.85;;;;;;;15.41;88.61;99901.41;5053854;28;20128;-68
2022/06/19 04:06:58;;;;;;;8.83;7.93;;;;;;;15.43;88.48;99893.97;5053790;28;20124;-65
2022/06/19 04:09:24;;;;;;;9.20;7.47;;;;;;;15.54;87.67;99913.91;5053716;28;20033;-66
2022/06/19 04:11:49;;;;;;;10.90;7.20;;;;;;;15.49;87.72;99893.09;5053799;28;20091;-66
2022/06/19 04:14:15;;;;;;;8.13;7.10;;;;;;;15.61;87.46;99907.53;5053781;28;20032;-64
2022/06/19 04:16:42;;;;;;;7.83;7.10;;;;;;;15.52;87.20;99895.34;5053724;28;20044;-65
2022/06/19 04:19:09;;;;;;;10.07;7.63;;;;;;;15.50;87.86;99894.75;5053762;28;20064;-65
2022/06/19 04:21:39;;;;;;;8.87;6.97;;;;;;;15.28;87.10;99858.53;5053258;28;20658;-65
2022/06/19 04:24:05;;;;;;;11.80;8.13;;;;;;;15.52;87.51;99891.84;5053803;28;20507;-64
2022/06/19 04:26:34;;;;;;;9.23;7.47;;;;;;;15.52;87.49;99887.28;5053376;28;20045;-66
2022/06/19 04:29:00;;;;;;;9.60;7.47;;;;;;;15.56;87.15;99885.81;5053581;28;20078;-65
2022/06/19 04:31:26;;;;;;;10.67;7.60;;;;;;;15.62;86.77;99878.81;5052349;28;20036;-66
2022/06/19 04:33:52;;;;;;;9.73;7.53;;;;;;;15.74;86.41;99885.94;5053892;28;20051;-67
2022/06/19 04:36:19;;;;;;;10.07;7.10;;;;;;;15.88;86.09;99880.47;5053866;28;20428;-64
2022/06/19 04:38:47;;;;;;;7.67;6.90;;;;;;;16.01;84.83;99883.88;5053096;28;20497;-66
2022/06/19 04:41:22;;;;;;;10.93;7.80;;;;;;;16.20;84.33;99890.13;5052017;28;20036;-65
2022/06/19 04:43:50;;;;;;;9.37;8.00;;;;;;;16.24;84.53;99896.72;5053067;28;20094;-63
2022/06/19 04:46:16;;;;;;;8.20;7.40;;;;;;;16.21;84.66;99883.72;5051909;28;20036;-65
2022/06/19 04:48:42;;;;;;;11.27;7.23;;;;;;;16.04;84.97;99864.66;5018616;28;20532;-65
2022/06/19 04:51:07;;;;;;;10.30;7.63;;;;;;;16.05;85.37;99876.22;5052910;28;20037;-65
2022/06/19 04:53:34;;;;;;;8.27;7.23;;;;;;;16.16;84.72;99878.16;5051493;28;20037;-65
2022/06/19 04:56:01;;;;;;;9.80;8.13;;;;;;;16.44;84.35;99866.94;5052851;28;20057;-67
2022/06/19 04:58:28;;;;;;;8.87;7.03;;;;;;;16.57;82.87;99866.81;5052742;28;20102;-66
2022/06/19 05:00:54;;;;;;;9.17;7.23;;;;;;;16.54;82.43;99885.25;5052587;28;20045;-66
2022/06/19 05:03:21;;;;;;;8.40;7.47;;;;;;;16.30;83.28;99874.34;5052544;28;20047;-64
2022/06/19 05:05:47;;;;;;;7.43;6.70;;;;;;;16.21;84.22;99870.28;5052350;28;20516;-65
2022/06/19 05:08:14;;;;;;;8.83;8.03;;;;;;;16.08;84.30;99859.66;5052580;28;20033;-64
2022/06/19 05:10:41;;;;;;;9.47;7.63;;;;;;;16.05;84.33;99846.66;5052444;28;20386;-66
2022/06/19 05:13:12;;;;;;;10.10;8.17;;;;;;;16.08;85.17;99848.91;5052549;28;20045;-66
2022/06/19 05:15:37;;;;;;;8.33;7.60;;;;;;;16.50;84.31;99833.81;5052481;28;20040;-65
2022/06/19 05:18:03;;;;;;;10.07;7.43;;;;;;;16.96;81.79;99862.88;5052461;28;20029;-65
2022/06/19 05:20:28;;;;;;;10.07;7.23;;;;;;;17.07;80.95;99852.41;5053510;28;20106;-64
2022/06/19 05:22:54;;;;;;;11.77;8.20;;;;;;;17.17;80.86;99858.06;5058363;28;20201;-63
2022/06/19 05:25:20;;;;;;;16.87;7.50;;;;;;;17.05;81.57;99847.22;5059241;28;20110;-64
2022/06/19 05:27:45;;;;;;;9.95;7.00;;;;;;;17.06;79.85;99842.69;5055811;28;20064;-65
2022/06/19 05:30:13;;;;;;;8.55;6.88;;;;;;;17.15;78.70;99854.78;5052202;28;20118;-64
2022/06/19 05:32:39;;;;;;;9.48;6.22;;;;;;;17.26;79.28;99846.75;5052179;28;20076;-67
2022/06/19 05:35:05;;;;;;;7.57;6.78;;;;;;;17.61;78.29;99852.22;5051347;28;20064;-65
2022/06/19 05:37:30;;;;;;;8.18;6.47;;;;;;;17.86;76.66;99844.00;5050860;28;20045;-64
2022/06/19 05:39:57;;;;;;;10.57;6.82;;;;;;;17.87;76.61;99847.53;5054184;28;20052;-65
2022/06/19 05:42:23;;;;;;;9.02;7.75;;;;;;;17.89;77.02;99842.72;5054573;28;20051;-63
2022/06/19 05:44:49;;;;;;;7.60;6.85;;;;;;;18.08;75.81;99851.53;5059807;28;20036;-65
2022/06/19 05:47:14;;;;;;;7.10;6.22;;;;;;;17.87;76.09;99840.25;5057935;28;20041;-65
2022/06/19 05:49:40;;;;;;;12.38;7.38;;;;;;;17.72;76.99;99831.00;5054966;28;20041;-65
2022/06/19 05:52:18;;;;;;;8.88;7.97;;;;;;;17.46;77.54;99781.06;5052439;28;20028;-64
2022/06/19 05:54:44;;;;;;;9.82;8.07;;;;;;;17.67;77.71;99820.06;5052237;28;20029;-64
2022/06/19 05:57:13;;;;;;;11.68;7.95;;;;;;;17.77;77.96;99841.91;5051693;28;20060;-65
2022/06/19 05:59:38;;;;;;;9.45;7.35;;;;;;;17.72;78.68;99844.47;5051929;28;20068;-65
2022/06/19 06:02:05;;;;;;;10.45;6.80;;;;;;;17.59;77.46;99830.09;5051696;28;20071;-67
2022/06/19 06:04:30;;;;;;;9.85;6.93;;;;;;;17.44;76.80;99829.75;5050399;28;20033;-66
2022/06/19 06:06:55;;;;;;;9.75;7.00;;;;;;;17.20;77.22;99782.28;5051595;28;20041;-67
2022/06/19 06:09:21;;;;;;;7.38;6.65;;;;;;;17.55;76.80;99831.63;5051783;28;20472;-65
2022/06/19 06:11:47;;;;;;;10.90;7.65;;;;;;;17.43;76.22;99793.09;5051605;28;20060;-66
2022/06/19 06:14:12;;;;;;;8.00;6.13;;;;;;;17.83;75.92;99832.88;5051629;28;20072;-66
2022/06/19 06:16:38;;;;;;;10.60;6.32;;;;;;;17.83;74.70;99825.63;5051368;28;20127;-64
2022/06/19 06:19:04;;;;;;;7.00;6.35;;;;;;;17.76;74.75;99829.47;5051701;28;20037;-65
2022/06/19 06:21:29;;;;;;;7.20;6.50;;;;;;;17.71;74.83;99826.66;5051685;28;20041;-65
2022/06/19 06:23:55;;;;;;;9.68;6.07;;;;;;;17.76;75.50;99824.09;5051909;28;20488;-65
2022/06/19 06:26:29;;;;;;;10.43;6.38;;;;;;;17.81;73.86;99822.34;5051652;28;20063;-65
2022/06/19 06:28:57;;;;;;;10.43;7.50;;;;;;;17.99;74.72;99828.69;5051675;28;20037;-64
2022/06/19 06:31:23;;;;;;;7.85;7.07;;;;;;;18.00;73.91;99836.53;5051404;28;20124;-65
2022/06/19 06:33:49;;;;;;;7.15;5.97;;;;;;;17.88;74.74;99838.38;5050440;28;20552;-66
2022/06/19 06:36:16;;;;;;;8.55;5.90;;;;;;;17.80;75.03;99836.88;5051661;28;20059;-65
2022/06/19 06:38:41;;;;;;;9.15;6.55;;;;;;;17.90;75.16;99837.09;5051479;28;20033;-66
2022/06/19 06:41:09;;;;;;;9.80;7.00;;;;;;;17.76;74.69;99797.16;5051473;28;20048;-65
2022/06/19 06:43:36;;;;;;;11.32;7.28;;;;;;;18.00;73.64;99804.22;5051408;28;20143;-67
2022/06/19 06:46:07;;;;;;;7.78;6.63;;;;;;;17.64;73.69;99736.03;5055112;28;20049;-66
2022/06/19 06:48:33;;;;;;;8.80;5.82;;;;;;;18.17;73.64;99825.88;5055845;28;20072;-67
2022/06/19 06:50:59;;;;;;;10.38;6.80;;;;;;;18.05;73.55;99798.94;5055304;28;20221;-67
2022/06/19 06:53:24;;;;;;;9.10;6.30;;;;;;;18.14;72.95;99799.38;5055250;28;20037;-66
2022/06/19 06:55:50;;;;;;;6.30;5.68;;;;;;;18.36;72.34;99823.88;5054932;28;20029;-65
2022/06/19 06:58:40;;;;;;;6.40;5.55;;;;;;;18.44;72.83;99820.81;5055278;28;20215;-66
2022/06/19 07:01:15;;;;;;;7.63;6.78;;;;;;;18.65;71.87;99832.88;5055382;28;20492;-65
2022/06/19 07:03:46;;;;;;;6.93;5.78;;;;;;;18.73;71.16;99802.84;5055219;28;20041;-65
2022/06/19 07:06:12;;;;;;;11.13;6.53;;;;;;;19.00;70.35;99813.88;5055119;28;20037;-66
2022/06/19 07:08:38;;;;;;;7.97;6.05;;;;;;;18.79;70.26;99807.28;5053654;28;20055;-66
2022/06/19 07:11:04;;;;;;;7.65;6.10;;;;;;;18.44;70.12;99772.28;5055084;28;20029;-66
2022/06/19 07:13:30;;;;;;;6.63;5.90;;;;;;;18.61;70.49;99807.44;5054856;28;20048;-65
2022/06/19 07:15:55;;;;;;;21.08;7.75;;;;;;;18.73;70.79;99811.75;5054734;28;20159;-67
2022/06/19 07:18:21;;;;;;;13.43;7.55;;;;;;;19.04;70.65;99810.47;5053425;28;20041;-66
2022/06/19 07:20:46;;;;;;;18.05;6.43;;;;;;;18.99;69.75;99796.06;5053475;28;20103;-66
2022/06/19 07:23:12;;;;;;;7.35;6.10;;;;;;;18.94;70.71;99814.84;5055158;28;20127;-67
2022/06/19 07:25:37;;;;;;;10.88;6.97;;;;;;;18.87;70.96;99810.44;5055345;28;20048;-66
2022/06/19 07:28:03;;;;;;;9.20;6.68;;;;;;;18.87;70.79;99826.63;5055136;28;20068;-66
2022/06/19 07:30:29;;;;;;;8.05;6.82;;;;;;;18.66;71.22;99813.75;5054598;28;20119;-65
2022/06/19 07:32:56;;;;;;;11.75;6.80;;;;;;;18.34;71.98;99794.47;5054684;28;20119;-64
2022/06/19 07:35:22;;;;;;;7.30;6.53;;;;;;;18.33;72.94;99800.09;5054363;28;20499;-65
2022/06/19 07:37:49;;;;;;;9.90;5.75;;;;;;;18.37;72.25;99787.78;5054337;28;20068;-66
2022/06/19 07:40:17;;;;;;;7.82;6.10;;;;;;;18.35;72.86;99819.53;5054132;28;20029;-64
2022/06/19 07:42:43;;;;;;;27.38;14.75;;;;;;;18.02;75.38;99839.81;5055256;28;20037;-63
2022/06/19 07:45:10;;;;;;;13.95;7.72;;;;;;;17.11;78.26;99795.25;5057183;28;20052;-65
2022/06/19 07:50:21;;;;;;;12.38;7.28;;;;;;;16.60;80.99;99819.84;5055695;28;20028;-66
2022/06/19 07:52:49;;;;;;;11.18;7.57;;;;;;;16.30;81.56;99828.66;5056072;28;20033;-66
2022/06/19 07:55:18;;;;;;;7.82;6.13;;;;;;;16.24;80.52;99817.97;5057666;28;20132;-66
2022/06/19 07:57:45;;;;;;;12.27;7.13;;;;;;;16.21;79.99;99816.56;5054587;28;20063;-63
2022/06/19 08:00:16;;;;;;;13.52;8.88;;;;;;;16.40;80.56;99834.31;5062211;28;20182;-65
2022/06/19 08:02:45;;;;;;;10.73;7.93;;;;;;;16.45;78.91;99803.28;5058428;28;20056;-64
2022/06/19 08:05:12;;;;;;;9.27;8.02;;;;;;;16.65;78.75;99822.69;5063062;28;20036;-64
2022/06/19 08:07:39;;;;;;;10.27;6.67;;;;;;;16.93;77.00;99820.28;5059576;28;20566;-66
2022/06/19 08:10:06;;;;;;;10.43;7.40;;;;;;;17.36;78.07;99835.47;5055313;28;20036;-68
2022/06/19 08:12:31;;;;;;;11.93;6.85;;;;;;;17.35;73.20;99769.22;5053260;28;20031;-65
2022/06/19 08:14:57;;;;;;;10.55;5.88;;;;;;;18.01;73.43;99850.84;5054225;28;20033;-67
2022/06/19 08:17:22;;;;;;;13.77;6.47;;;;;;;17.76;72.76;99802.56;5053682;28;20028;-65
2022/06/19 08:19:48;;;;;;;7.90;6.20;;;;;;;17.84;71.58;99861.44;5053760;28;20036;-68
2022/06/19 08:22:13;;;;;;;22.05;6.03;;;;;;;17.47;71.94;99844.59;5053857;28;20033;-66
2022/06/19 08:24:39;;;;;;;10.18;5.97;;;;;;;17.19;72.54;99834.44;5052279;28;20033;-66
2022/06/19 08:27:05;;;;;;;7.93;5.65;;;;;;;17.29;73.94;99840.91;5053450;28;20132;-65
2022/06/19 08:29:31;;;;;;;8.73;5.80;;;;;;;17.48;71.79;99841.69;5053438;28;20040;-66
2022/06/19 08:31:57;;;;;;;8.23;4.93;;;;;;;17.63;71.12;99822.38;5053174;28;20033;-65
2022/06/19 08:34:22;;;;;;;7.78;4.82;;;;;;;17.73;70.69;99868.47;5052448;28;20041;-64
2022/06/19 08:36:48;;;;;;;7.07;5.20;;;;;;;17.74;72.05;99847.75;5053378;28;20484;-65
2022/06/19 08:39:16;;;;;;;5.32;4.82;;;;;;;17.89;70.47;99848.09;5052069;28;20044;-67
2022/06/19 08:42:06;;;;;;;6.93;4.97;;;;;;;18.33;70.96;99862.09;5053102;28;20039;-64
2022/06/19 08:44:41;;;;;;;7.60;5.63;;;;;;;18.52;69.85;99877.09;5052974;28;20045;-64
2022/06/19 08:47:22;;;;;;;8.68;4.50;;;;;;;18.54;67.99;99877.66;5053100;28;20086;-65
2022/06/19 08:50:20;;;;;;;8.57;5.18;;;;;;;18.51;69.38;99851.19;5053258;28;20067;-66
2022/06/19 08:52:52;;;;;;;;;;;;;;;18.61;68.10;99872.97;5049055;28;20106;-66
2022/06/19 08:55:45;;;;;;;8.68;5.25;;;;;;;18.36;69.76;99883.16;5052974;28;19970;-64
2022/06/19 08:58:24;;;;;;;9.57;4.60;;;;;;;18.26;70.02;99887.28;5053002;28;20044;-66
2022/06/19 09:01:30;;;;;;;9.20;4.95;;;;;;;18.20;69.93;99869.31;5053116;28;20056;-66
2022/06/19 09:07:12;;;;;;;8.82;4.57;;;;;;;18.43;69.35;99884.69;5052873;28;20411;-66
2022/06/19 09:09:53;;;;;;;7.32;5.43;;;;;;;18.33;69.94;99905.22;5051565;28;20120;-66
2022/06/19 09:12:38;;;;;;;12.02;4.90;;;;;;;18.11;70.71;99896.88;5052774;28;20506;-67
2022/06/19 09:15:11;;;;;;;12.55;5.45;;;;;;;17.99;70.73;99910.34;5052602;28;20428;-66
2022/06/19 09:17:37;;;;;;;9.90;6.70;;;;;;;18.20;70.68;99901.66;5052457;28;20111;-64
2022/06/19 09:20:28;;;;;;;6.45;4.60;;;;;;;18.53;69.73;99916.47;5051210;28;20115;-66
2022/06/19 09:23:05;;;;;;;9.10;5.15;;;;;;;18.14;68.34;99826.34;5040815;28;20041;-65
2022/06/19 09:25:55;;;;;;;6.47;4.93;;;;;;;18.60;69.16;99921.75;5050836;28;20037;-66
2022/06/19 09:28:45;;;;;;;9.70;5.35;;;;;;;18.68;67.30;99927.63;5050880;28;20033;-68
2022/06/19 09:31:20;;;;;;;8.88;6.03;;;;;;;18.58;67.93;99941.69;5052648;28;20048;-66
2022/06/19 09:33:59;;;;;;;8.63;5.32;;;;;;;18.47;69.00;99920.09;5052479;28;20044;-67
2022/06/19 09:36:30;;;;;;;9.82;5.53;;;;;;;18.43;66.79;99943.19;5052049;28;20404;-66
2022/06/19 09:39:02;;;;;;;11.77;6.18;;;;;;;18.44;67.50;99947.50;5052267;28;20040;-65
2022/06/19 09:41:52;;;;;;;7.55;5.47;;;;;;;18.92;66.54;99941.91;5052134;28;20469;-68
2022/06/19 09:44:36;;;;;;;8.55;4.85;;;;;;;18.95;65.68;99946.00;5052115;28;20044;-67
2022/06/19 09:47:04;;;;;;;7.75;5.30;;;;;;;18.67;66.12;99949.44;5051876;28;20507;-67
2022/06/19 09:49:41;;;;;;;6.40;5.10;;;;;;;18.82;67.75;99958.69;5051779;28;20062;-68
2022/06/19 09:52:14;;;;;;;6.97;4.25;;;;;;;18.62;64.73;99969.03;5053266;28;20044;-64
2022/06/19 09:54:40;;;;;;;7.30;4.18;;;;;;;18.44;64.36;99952.91;5055452;28;20037;-66
2022/06/19 09:57:15;;;;;;;9.43;4.13;;;;;;;18.23;64.65;99957.81;5055455;28;20570;-68
2022/06/19 09:59:54;;;;;;;4.90;3.72;;;;;;;18.26;64.38;99956.53;5052806;28;20507;-66
2022/06/19 10:02:43;;;;;;;7.15;3.53;;;;;;;18.15;64.94;99963.53;5051993;28;20049;-65
2022/06/19 10:05:30;;;;;;;7.50;4.15;;;;;;;18.02;63.24;99979.91;5052346;28;20033;-65
2022/06/19 10:08:31;;;;;;;7.38;4.28;;;;;;;18.05;64.61;99984.03;5052266;28;20045;-66
2022/06/19 10:11:03;;;;;;;10.73;5.65;;;;;;;17.91;65.84;99945.66;5043067;28;20059;-69
2022/06/19 10:13:38;;;;;;;7.32;4.15;;;;;;;18.28;65.55;99981.38;5052692;28;20427;-67
2022/06/19 10:16:30;;;;;;;6.68;3.47;;;;;;;18.25;63.21;99988.06;5053570;28;20037;-66
2022/06/19 10:18:56;;;;;;;7.25;3.20;;;;;;;18.24;62.83;99989.13;5054886;28;20049;-65
2022/06/19 10:24:24;;;;;;;5.53;3.17;;;;;;;17.55;64.13;100017.38;5055942;28;20120;-66
2022/06/19 10:26:56;;;;;;;4.50;2.33;;;;;;;17.10;66.42;99984.59;5056113;28;20051;-66
2022/06/19 10:29:30;;;;;;;5.95;2.33;;;;;;;17.24;67.19;100010.31;5055950;28;20291;-67
2022/06/19 10:32:22;;;;;;;5.55;2.95;;;;;;;17.20;66.41;100029.81;5056180;28;20043;-68
2022/06/19 10:35:15;;;;;;;8.98;3.05;;;;;;;17.04;67.98;100021.28;5044020;28;20124;-64
2022/06/19 10:37:46;;;;;;;4.75;2.53;;;;;;;17.15;66.51;100022.41;5055649;28;20036;-66
2022/06/19 10:40:52;;;;;;;6.85;2.60;;;;;;;17.24;65.72;100033.69;5055695;28;20527;-66
2022/06/19 10:43:20;;;;;;;11.45;3.17;;;;;;;17.13;66.54;100026.38;5043956;28;20385;-66
2022/06/19 10:45:58;;;;;;;8.82;3.13;;;;;;;17.20;66.85;100037.88;5054099;28;20048;-66
2022/06/19 10:48:35;;;;;;;3.25;2.33;;;;;;;17.15;67.01;100040.44;5055328;28;20127;-66
2022/06/19 10:51:10;;;;;;;5.77;2.43;;;;;;;17.08;67.80;100018.97;5054027;28;20037;-65
2022/06/19 10:54:03;;;;;;;3.65;2.20;;;;;;;17.11;66.77;100031.16;5053694;28;20140;-66
2022/06/19 10:56:54;;;;;;;11.20;2.75;;;;;;;16.97;64.42;100051.97;5054887;28;20140;-66
2022/06/19 10:59:21;;;;;;;4.43;2.53;;;;;;;16.69;64.51;100025.53;5055067;28;20052;-66
2022/06/19 11:04:53;;;;;;;4.82;1.88;;;;;;;16.61;63.18;100055.38;5055033;28;20543;-68
2022/06/19 11:07:20;;;;;;;;;;;;;;;16.54;61.56;100070.72;5055504;28;20140;-65
2022/06/19 11:09:49;;;;;;;3.58;2.15;;;;;;;16.28;61.93;100059.13;5054841;28;20299;-65
2022/06/19 11:12:34;;;;;;;5.67;2.07;;;;;;;15.71;62.46;99966.09;5054765;28;20033;-66
2022/06/19 11:15:05;;;;;;;13.17;2.53;;;;;;;16.35;61.58;100075.19;5054840;28;20067;-64
2022/06/19 11:17:36;;;;;;;4.00;1.58;;;;;;;16.45;62.83;100078.22;5054686;28;20377;-65
2022/06/19 11:20:31;;;;;;;8.63;3.07;;;;;;;16.60;61.75;100089.50;5054657;28;20040;-66
2022/06/19 11:23:16;;;;;;;7.40;1.97;;;;;;;16.54;62.51;100081.47;5049715;28;20040;-66
2022/06/19 11:25:45;;;;;;;5.97;2.40;;;;;;;16.38;63.27;100072.91;5054843;28;20074;-67
2022/06/19 11:28:16;;;;;;;7.00;2.20;;;;;;;16.41;63.48;100075.16;5054783;28;20115;-65
2022/06/19 11:30:52;;;;;;;8.55;1.67;;;;;;;16.43;63.22;100115.25;5054513;28;20037;-65
2022/06/19 11:33:27;;;;;;;9.90;2.33;;;;;;;16.23;63.24;100072.38;5053220;28;20041;-66
2022/06/19 11:35:57;;;;;;;5.35;1.80;;;;;;;15.99;63.04;100055.16;5054337;28;20472;-65
2022/06/19 11:38:45;;;;;;;7.80;2.50;;;;;;;16.26;64.01;100071.13;5055525;28;20045;-66
2022/06/19 11:41:18;;;;;;;3.78;2.22;;;;;;;16.16;62.19;100079.63;5056643;28;20515;-65
2022/06/19 11:43:43;;;;;;;7.60;2.30;;;;;;;15.90;62.83;100072.56;5056589;28;20045;-66
2022/06/19 11:46:25;;;;;;;4.37;1.90;;;;;;;15.99;63.08;100113.41;5056610;28;20041;-63
2022/06/19 11:48:50;;;;;;;7.83;1.90;;;;;;;15.89;62.97;100096.91;5056645;28;20488;-66
2022/06/19 11:51:21;;;;;;;4.27;1.90;;;;;;;15.88;62.14;100106.00;5055886;28;20090;-64
2022/06/19 11:53:53;;;;;;;5.27;1.70;;;;;;;15.99;63.34;100122.31;5055917;28;20094;-63